Time;durP1;ratioP1;P1;durP2;ratioP2;P2;SDS_P1;SDS_P2;PMS_P1;PMS_P2;Temp;Humidity;BMP_temperature;BMP_pressure;BME280_temperature;BME280_humidity;BME280_pressure;Samples;Min_cycle;Max_cycle;Signal;HPM_P1;HPM_P2
2023/08/24 00:01:48;;;;;;;5.70;3.30;;;;;;;;;;110171;268;38636;-35
2023/08/24 00:04:23;;;;;;;5.00;3.40;;;;;;;;;;110204;268;39703;-35
2023/08/24 00:07:08;;;;;;;5.30;3.30;;;;;;;;;;110163;268;42684;-35
2023/08/24 00:09:48;;;;;;;5.50;3.50;;;;;;;;;;110198;268;42380;-36
2023/08/24 00:12:29;;;;;;;5.10;3.50;;;;;;;;;;110172;268;38403;-35
2023/08/24 00:15:12;;;;;;;6.10;3.80;;;;;;;;;;110164;268;39581;-35
2023/08/24 00:17:52;;;;;;;4.80;3.50;;;;;;;;;;110113;268;43936;-36
2023/08/24 00:20:32;;;;;;;5.40;3.50;;;;;;;;;;110131;268;44357;-35
2023/08/24 00:23:09;;;;;;;6.20;3.70;;;;;;;;;;110152;268;38752;-35
2023/08/24 00:25:50;;;;;;;6.30;3.80;;;;;;;;;;110070;268;176000;-35
2023/08/24 00:28:28;;;;;;;5.60;3.80;;;;;;;;;;110107;268;43101;-35
2023/08/24 00:31:07;;;;;;;5.50;3.60;;;;;;;;;;110178;269;42131;-35
2023/08/24 00:33:45;;;;;;;5.10;3.60;;;;;;;;;;110126;269;38645;-35
2023/08/24 00:36:28;;;;;;;5.70;3.80;;;;;;;;;;110117;269;39754;-36
2023/08/24 00:39:07;;;;;;;5.80;3.70;;;;;;;;;;110140;269;42515;-35
2023/08/24 00:41:45;;;;;;;5.60;3.80;;;;;;;;;;110142;269;42159;-35
2023/08/24 00:44:23;;;;;;;5.40;3.80;;;;;;;;;;110159;269;38848;-35
2023/08/24 00:46:58;;;;;;;5.30;3.80;;;;;;;;;;110149;269;39684;-35
2023/08/24 00:49:42;;;;;;;6.30;4.00;;;;;;;;;;110285;269;43934;-35
2023/08/24 00:52:25;;;;;;;5.70;3.80;;;;;;;;;;110142;269;42271;-35
2023/08/24 00:55:08;;;;;;;5.70;4.00;;;;;;;;;;110014;269;175345;-35
2023/08/24 00:57:52;;;;;;;5.20;3.70;;;;;;;;;;110092;268;39756;-35
2023/08/24 01:00:33;;;;;;;5.30;3.70;;;;;;;;;;110129;268;42920;-35
2023/08/24 01:03:18;;;;;;;5.70;3.90;;;;;;;;;;110131;268;41710;-35
2023/08/24 01:05:58;;;;;;;6.20;3.90;;;;;;;;;;110163;268;38679;-35
2023/08/24 01:08:38;;;;;;;5.60;3.90;;;;;;;;;;110125;269;39500;-35
2023/08/24 01:11:24;;;;;;;5.30;4.00;;;;;;;;;;110127;268;44004;-35
2023/08/24 01:14:21;;;;;;;5.80;3.90;;;;;;;;;;110129;268;43123;-35
2023/08/24 01:17:05;;;;;;;5.30;3.80;;;;;;;;;;110153;268;38670;-35
2023/08/24 01:19:47;;;;;;;6.30;4.00;;;;;;;;;;110118;268;40904;-35
2023/08/24 01:22:42;;;;;;;5.60;3.80;;;;;;;;;;110147;268;42713;-35
2023/08/24 01:25:38;;;;;;;5.10;3.70;;;;;;;;;;110143;269;42142;-35
2023/08/24 01:28:18;;;;;;;5.90;4.20;;;;;;;;;;110112;269;38685;-35
2023/08/24 01:30:59;;;;;;;5.20;4.00;;;;;;;;;;110183;268;40551;-35
2023/08/24 01:33:43;;;;;;;6.20;4.00;;;;;;;;;;110160;268;42748;-35
2023/08/24 01:36:22;;;;;;;5.40;3.90;;;;;;;;;;110167;268;41971;-35
2023/08/24 01:39:12;;;;;;;6.50;3.80;;;;;;;;;;110130;268;38642;-35
2023/08/24 01:42:03;;;;;;;5.50;3.90;;;;;;;;;;110175;268;39661;-35
2023/08/24 01:44:46;;;;;;;5.90;4.10;;;;;;;;;;110186;268;42617;-35
2023/08/24 01:47:27;;;;;;;;;;;;;;;;;;110206;268;43235;-35
2023/08/24 01:50:09;;;;;;;5.40;4.00;;;;;;;;;;110190;268;38637;-35
2023/08/24 01:52:51;;;;;;;6.40;4.20;;;;;;;;;;110122;268;39548;-36
2023/08/24 01:55:27;;;;;;;5.50;4.20;;;;;;;;;;110132;268;42766;-35
2023/08/24 01:58:09;;;;;;;5.40;4.10;;;;;;;;;;110144;268;41801;-35
2023/08/24 02:00:50;;;;;;;5.90;4.00;;;;;;;;;;110173;268;38701;-35
2023/08/24 02:03:34;;;;;;;5.90;4.00;;;;;;;;;;110185;268;39516;-35
2023/08/24 02:06:10;;;;;;;5.10;4.00;;;;;;;;;;110118;268;42987;-35
2023/08/24 02:08:47;;;;;;;5.70;4.10;;;;;;;;;;110147;268;41686;-36
2023/08/24 02:11:28;;;;;;;5.40;4.00;;;;;;;;;;110160;268;45032;-35
2023/08/24 02:14:07;;;;;;;6.00;4.20;;;;;;;;;;110159;268;40719;-36
2023/08/24 02:17:04;;;;;;;6.20;4.30;;;;;;;;;;110172;268;44022;-35
2023/08/24 02:19:44;;;;;;;5.20;3.90;;;;;;;;;;110135;268;42157;-35
2023/08/24 02:22:30;;;;;;;5.90;4.00;;;;;;;;;;110152;268;38468;-35
2023/08/24 02:25:12;;;;;;;5.40;3.90;;;;;;;;;;110156;268;39851;-35
2023/08/24 02:27:54;;;;;;;5.70;4.10;;;;;;;;;;110140;268;42512;-35
2023/08/24 02:30:34;;;;;;;5.20;4.00;;;;;;;;;;110022;268;43650;-35
2023/08/24 02:33:13;;;;;;;5.50;4.30;;;;;;;;;;110121;268;38826;-35
2023/08/24 02:35:53;;;;;;;5.10;3.90;;;;;;;;;;110180;268;39695;-35
2023/08/24 02:38:46;;;;;;;6.10;4.00;;;;;;;;;;110129;268;43973;-35
2023/08/24 02:41:29;;;;;;;6.50;4.40;;;;;;;;;;110117;268;42023;-35
2023/08/24 02:44:06;;;;;;;5.40;4.10;;;;;;;;;;110170;268;38676;-35
2023/08/24 02:46:50;;;;;;;5.90;3.90;;;;;;;;;;110160;268;39558;-35
2023/08/24 02:49:35;;;;;;;5.20;3.90;;;;;;;;;;110146;268;42539;-35
2023/08/24 02:52:22;;;;;;;6.40;4.10;;;;;;;;;;110077;268;48075;-35
2023/08/24 02:55:06;;;;;;;6.10;4.20;;;;;;;;;;110155;268;38799;-36
2023/08/24 02:57:42;;;;;;;5.50;3.90;;;;;;;;;;110151;268;39821;-35
2023/08/24 03:00:19;;;;;;;5.50;3.80;;;;;;;;;;110130;268;43019;-35
2023/08/24 03:03:01;;;;;;;6.10;4.20;;;;;;;;;;110165;268;42002;-35
2023/08/24 03:05:42;;;;;;;5.30;3.70;;;;;;;;;;110145;268;38669;-35
2023/08/24 03:08:20;;;;;;;5.60;3.90;;;;;;;;;;110213;268;39626;-35
2023/08/24 03:10:56;;;;;;;5.60;3.70;;;;;;;;;;110158;268;43990;-35
2023/08/24 03:13:32;;;;;;;5.90;3.80;;;;;;;;;;110153;268;41884;-35
2023/08/24 03:16:20;;;;;;;5.70;3.90;;;;;;;;;;110130;268;38403;-35
2023/08/24 03:18:58;;;;;;;5.20;3.70;;;;;;;;;;110178;268;39467;-35
2023/08/24 03:21:34;;;;;;;5.80;3.70;;;;;;;;;;110151;268;42745;-35
2023/08/24 03:24:12;;;;;;;6.10;3.80;;;;;;;;;;110181;268;41779;-35
2023/08/24 03:26:49;;;;;;;5.30;3.60;;;;;;;;;;110154;268;38768;-35
2023/08/24 03:29:27;;;;;;;5.80;3.60;;;;;;;;;;110215;268;39469;-35
2023/08/24 03:32:02;;;;;;;6.20;3.80;;;;;;;;;;110172;268;42542;-35
2023/08/24 03:34:47;;;;;;;5.10;3.40;;;;;;;;;;110165;268;41928;-35
2023/08/24 03:37:35;;;;;;;5.30;3.70;;;;;;;;;;110216;268;38604;-36
2023/08/24 03:40:20;;;;;;;5.40;3.40;;;;;;;;;;110196;268;41050;-35
2023/08/24 03:42:58;;;;;;;5.30;3.30;;;;;;;;;;110180;268;42985;-35
2023/08/24 03:45:38;;;;;;;5.60;3.40;;;;;;;;;;110192;268;41986;-35
2023/08/24 03:48:22;;;;;;;5.40;3.50;;;;;;;;;;110151;268;38481;-35
2023/08/24 03:51:01;;;;;;;5.40;3.30;;;;;;;;;;110054;268;175393;-35
2023/08/24 03:53:40;;;;;;;5.30;3.50;;;;;;;;;;110239;268;48504;-35
2023/08/24 03:56:18;;;;;;;6.70;3.60;;;;;;;;;;110173;268;41994;-35
2023/08/24 03:59:08;;;;;;;5.70;3.20;;;;;;;;;;110134;268;38979;-35
2023/08/24 04:01:46;;;;;;;5.50;3.30;;;;;;;;;;110111;268;39405;-35
2023/08/24 04:04:27;;;;;;;6.10;3.40;;;;;;;;;;110141;268;42779;-35
2023/08/24 04:07:06;;;;;;;5.50;3.50;;;;;;;;;;110198;268;42189;-36
2023/08/24 04:09:49;;;;;;;5.00;3.20;;;;;;;;;;110120;268;38688;-36
2023/08/24 04:12:27;;;;;;;5.00;2.90;;;;;;;;;;110147;268;39614;-35
2023/08/24 04:15:15;;;;;;;5.10;3.60;;;;;;;;;;110154;268;42700;-35
2023/08/24 04:17:59;;;;;;;5.50;3.40;;;;;;;;;;110161;268;43149;-35
2023/08/24 04:20:39;;;;;;;5.30;3.70;;;;;;;;;;110165;268;38603;-35
2023/08/24 04:23:29;;;;;;;5.60;3.80;;;;;;;;;;110156;268;39578;-35
2023/08/24 04:26:08;;;;;;;5.60;3.80;;;;;;;;;;110150;268;42739;-35
2023/08/24 04:28:45;;;;;;;5.20;3.50;;;;;;;;;;110201;268;42198;-35
2023/08/24 04:31:27;;;;;;;5.00;3.30;;;;;;;;;;110066;268;175420;-35
2023/08/24 04:34:11;;;;;;;5.00;3.40;;;;;;;;;;110140;268;39618;-35
2023/08/24 04:36:48;;;;;;;5.40;3.40;;;;;;;;;;110168;268;43959;-35
2023/08/24 04:39:30;;;;;;;6.40;3.70;;;;;;;;;;110186;268;43132;-35
2023/08/24 04:42:09;;;;;;;5.10;3.50;;;;;;;;;;110140;268;38774;-35
2023/08/24 04:44:51;;;;;;;5.50;3.60;;;;;;;;;;110316;268;45592;-35
2023/08/24 04:47:29;;;;;;;5.00;3.20;;;;;;;;;;110174;268;42898;-35
2023/08/24 04:50:12;;;;;;;5.50;3.30;;;;;;;;;;110142;268;42129;-35
2023/08/24 04:52:59;;;;;;;5.10;3.40;;;;;;;;;;110136;268;38787;-35
2023/08/24 04:55:39;;;;;;;5.10;3.30;;;;;;;;;;110197;268;39695;-35
2023/08/24 04:58:16;;;;;;;5.20;3.30;;;;;;;;;;110185;268;43044;-35
2023/08/24 05:00:58;;;;;;;4.70;3.30;;;;;;;;;;110167;268;42025;-35
2023/08/24 05:03:41;;;;;;;4.90;3.20;;;;;;;;;;110120;268;38635;-35
2023/08/24 05:06:21;;;;;;;5.20;3.40;;;;;;;;;;110166;268;39805;-35
2023/08/24 05:09:01;;;;;;;4.70;3.30;;;;;;;;;;110193;268;43078;-35
2023/08/24 05:11:41;;;;;;;4.70;3.10;;;;;;;;;;110141;268;42191;-35
2023/08/24 05:14:22;;;;;;;5.10;3.20;;;;;;;;;;110139;268;38860;-35
2023/08/24 05:17:00;;;;;;;5.30;3.20;;;;;;;;;;110153;268;40012;-35
2023/08/24 05:19:45;;;;;;;6.20;3.30;;;;;;;;;;110167;268;42645;-35
2023/08/24 05:22:30;;;;;;;5.40;3.40;;;;;;;;;;110134;268;42005;-35
2023/08/24 05:25:18;;;;;;;6.30;3.50;;;;;;;;;;110162;268;38479;-35
2023/08/24 05:27:54;;;;;;;5.40;3.20;;;;;;;;;;110207;268;39972;-35
2023/08/24 05:30:37;;;;;;;5.00;3.30;;;;;;;;;;110172;268;42500;-35
2023/08/24 05:33:14;;;;;;;5.60;3.10;;;;;;;;;;110160;268;41775;-35
2023/08/24 05:35:51;;;;;;;5.00;3.20;;;;;;;;;;110136;268;45873;-35
2023/08/24 05:38:29;;;;;;;5.90;3.40;;;;;;;;;;110178;268;39738;-35
2023/08/24 05:41:08;;;;;;;5.70;3.30;;;;;;;;;;110132;268;42953;-35
2023/08/24 05:43:52;;;;;;;6.10;3.50;;;;;;;;;;110144;268;42048;-35
2023/08/24 05:46:29;;;;;;;5.30;3.40;;;;;;;;;;110180;268;46247;-35
2023/08/24 05:49:11;;;;;;;7.30;3.50;;;;;;;;;;110184;268;39641;-35
2023/08/24 05:51:53;;;;;;;6.50;3.60;;;;;;;;;;110165;268;43094;-35
2023/08/24 05:54:31;;;;;;;6.30;3.30;;;;;;;;;;110120;268;42051;-35
2023/08/24 05:57:08;;;;;;;6.10;3.40;;;;;;;;;;110166;268;40010;-35
2023/08/24 05:59:49;;;;;;;5.30;3.40;;;;;;;;;;110173;268;39767;-35
2023/08/24 06:02:27;;;;;;;6.20;3.60;;;;;;;;;;110144;268;42690;-35
2023/08/24 06:05:02;;;;;;;5.30;3.40;;;;;;;;;;110194;268;41970;-36
2023/08/24 06:07:38;;;;;;;5.80;3.50;;;;;;;;;;110170;268;38399;-35
2023/08/24 06:10:13;;;;;;;5.70;3.40;;;;;;;;;;110198;268;39513;-35
2023/08/24 06:12:47;;;;;;;5.70;3.60;;;;;;;;;;110222;268;43894;-35
2023/08/24 06:15:24;;;;;;;5.40;3.30;;;;;;;;;;110162;268;43120;-36
2023/08/24 06:18:04;;;;;;;5.60;3.60;;;;;;;;;;110210;268;38582;-34
2023/08/24 06:20:43;;;;;;;7.30;3.50;;;;;;;;;;110180;268;39562;-36
2023/08/24 06:23:22;;;;;;;6.90;3.30;;;;;;;;;;110071;268;175431;-36
2023/08/24 06:26:04;;;;;;;6.20;3.60;;;;;;;;;;110143;268;42150;-36
2023/08/24 06:28:41;;;;;;;6.30;3.60;;;;;;;;;;110178;268;38977;-39
2023/08/24 06:31:18;;;;;;;6.50;3.70;;;;;;;;;;110173;268;39682;-36
2023/08/24 06:33:57;;;;;;;5.80;3.40;;;;;;;;;;110163;268;42569;-34
2023/08/24 06:36:32;;;;;;;7.70;3.70;;;;;;;;;;110155;268;42469;-35
2023/08/24 06:39:09;;;;;;;6.70;3.60;;;;;;;;;;110182;268;39927;-36
2023/08/24 06:41:51;;;;;;;6.50;3.80;;;;;;;;;;110025;268;126653;-37
2023/08/24 06:44:25;;;;;;;8.40;4.70;;;;;;;;;;110179;268;42922;-37
2023/08/24 06:47:08;;;;;;;6.70;3.80;;;;;;;;;;110045;268;195140;-37
2023/08/24 06:49:43;;;;;;;7.10;3.80;;;;;;;;;;110185;268;38698;-37
2023/08/24 06:52:20;;;;;;;6.10;3.50;;;;;;;;;;110188;268;39292;-37
2023/08/24 06:54:57;;;;;;;7.20;3.60;;;;;;;;;;110098;268;175035;-37
2023/08/24 06:57:33;;;;;;;6.50;3.50;;;;;;;;;;110158;264;42154;-37
2023/08/24 07:00:14;;;;;;;6.40;3.40;;;;;;;;;;110189;268;38571;-37
2023/08/24 07:02:50;;;;;;;5.50;3.00;;;;;;;;;;110161;268;40965;-37
2023/08/24 07:05:25;;;;;;;6.00;3.50;;;;;;;;;;110153;268;42869;-37
2023/08/24 07:08:03;;;;;;;5.60;3.30;;;;;;;;;;110136;268;47963;-37
2023/08/24 07:10:39;;;;;;;6.30;3.30;;;;;;;;;;110189;268;39860;-37
2023/08/24 07:13:14;;;;;;;5.40;3.20;;;;;;;;;;110214;268;39553;-37
